sensor_id;sensor_type;location;lat;lon;timestamp;P1;durP1;ratioP1;P2;durP2;ratioP2
73170;SDS011;61381;50.118;19.962;2023-06-10T00:00:59;31.25;;;18.42;;
73170;SDS011;61381;50.118;19.962;2023-06-10T00:06:20;30.05;;;17.20;;
73170;SDS011;61381;50.118;19.962;2023-06-10T00:11:22;29.40;;;18.02;;
73170;SDS011;61381;50.118;19.962;2023-06-10T00:16:23;30.27;;;18.58;;
73170;SDS011;61381;50.118;19.962;2023-06-10T00:21:24;29.08;;;16.75;;
73170;SDS011;61381;50.118;19.962;2023-06-10T00:26:26;31.15;;;18.42;;
73170;SDS011;61381;50.118;19.962;2023-06-10T00:31:27;27.20;;;18.25;;
73170;SDS011;61381;50.118;19.962;2023-06-10T00:36:28;29.73;;;18.20;;
73170;SDS011;61381;50.118;19.962;2023-06-10T00:41:31;29.30;;;18.40;;
73170;SDS011;61381;50.118;19.962;2023-06-10T00:46:32;29.42;;;18.98;;
73170;SDS011;61381;50.118;19.962;2023-06-10T00:51:34;31.20;;;18.63;;
73170;SDS011;61381;50.118;19.962;2023-06-10T00:56:37;30.85;;;18.40;;
73170;SDS011;61381;50.118;19.962;2023-06-10T01:01:38;31.17;;;20.73;;
73170;SDS011;61381;50.118;19.962;2023-06-10T01:06:41;31.58;;;19.63;;
73170;SDS011;61381;50.118;19.962;2023-06-10T01:11:55;30.20;;;19.25;;
73170;SDS011;61381;50.118;19.962;2023-06-10T01:17:02;30.60;;;18.85;;
73170;SDS011;61381;50.118;19.962;2023-06-10T01:22:05;32.60;;;20.70;;
73170;SDS011;61381;50.118;19.962;2023-06-10T01:27:08;30.15;;;18.35;;
73170;SDS011;61381;50.118;19.962;2023-06-10T01:32:15;32.83;;;21.58;;
73170;SDS011;61381;50.118;19.962;2023-06-10T01:37:19;34.50;;;19.10;;
73170;SDS011;61381;50.118;19.962;2023-06-10T01:42:23;34.25;;;19.40;;
73170;SDS011;61381;50.118;19.962;2023-06-10T01:47:25;31.58;;;19.38;;
73170;SDS011;61381;50.118;19.962;2023-06-10T01:52:27;31.90;;;19.77;;
73170;SDS011;61381;50.118;19.962;2023-06-10T01:57:28;29.77;;;18.20;;
73170;SDS011;61381;50.118;19.962;2023-06-10T02:02:29;31.38;;;18.90;;
73170;SDS011;61381;50.118;19.962;2023-06-10T02:07:31;33.55;;;20.23;;
73170;SDS011;61381;50.118;19.962;2023-06-10T02:12:32;33.38;;;18.60;;
73170;SDS011;61381;50.118;19.962;2023-06-10T02:17:33;30.23;;;18.55;;
73170;SDS011;61381;50.118;19.962;2023-06-10T02:22:36;30.05;;;18.08;;
73170;SDS011;61381;50.118;19.962;2023-06-10T02:27:37;31.50;;;20.20;;
73170;SDS011;61381;50.118;19.962;2023-06-10T02:32:38;29.67;;;18.50;;
73170;SDS011;61381;50.118;19.962;2023-06-10T02:37:40;29.58;;;18.65;;
73170;SDS011;61381;50.118;19.962;2023-06-10T02:42:41;35.95;;;18.85;;
73170;SDS011;61381;50.118;19.962;2023-06-10T02:47:42;30.77;;;18.60;;
73170;SDS011;61381;50.118;19.962;2023-06-10T02:52:44;28.92;;;17.60;;
73170;SDS011;61381;50.118;19.962;2023-06-10T02:57:45;32.58;;;19.13;;
73170;SDS011;61381;50.118;19.962;2023-06-10T03:02:46;28.60;;;17.95;;
73170;SDS011;61381;50.118;19.962;2023-06-10T03:07:49;26.58;;;17.25;;
73170;SDS011;61381;50.118;19.962;2023-06-10T03:12:50;27.02;;;16.90;;
73170;SDS011;61381;50.118;19.962;2023-06-10T03:17:51;28.30;;;17.30;;
73170;SDS011;61381;50.118;19.962;2023-06-10T03:22:53;28.27;;;16.33;;
73170;SDS011;61381;50.118;19.962;2023-06-10T03:27:54;23.35;;;16.77;;
73170;SDS011;61381;50.118;19.962;2023-06-10T03:32:55;23.85;;;15.00;;
73170;SDS011;61381;50.118;19.962;2023-06-10T03:37:57;23.10;;;14.95;;
73170;SDS011;61381;50.118;19.962;2023-06-10T03:42:58;19.55;;;13.68;;
73170;SDS011;61381;50.118;19.962;2023-06-10T03:47:59;20.88;;;14.60;;
73170;SDS011;61381;50.118;19.962;2023-06-10T03:53:03;20.23;;;13.75;;
73170;SDS011;61381;50.118;19.962;2023-06-10T03:58:03;18.88;;;13.65;;
73170;SDS011;61381;50.118;19.962;2023-06-10T04:03:05;17.95;;;12.40;;
73170;SDS011;61381;50.118;19.962;2023-06-10T04:08:07;17.40;;;12.15;;
73170;SDS011;61381;50.118;19.962;2023-06-10T04:13:08;16.23;;;11.77;;
73170;SDS011;61381;50.118;19.962;2023-06-10T04:18:09;15.93;;;10.45;;
73170;SDS011;61381;50.118;19.962;2023-06-10T04:23:11;14.57;;;9.60;;
73170;SDS011;61381;50.118;19.962;2023-06-10T04:28:12;14.88;;;10.82;;
73170;SDS011;61381;50.118;19.962;2023-06-10T04:33:13;14.73;;;10.07;;
73170;SDS011;61381;50.118;19.962;2023-06-10T04:38:16;15.35;;;10.30;;
73170;SDS011;61381;50.118;19.962;2023-06-10T04:43:17;12.35;;;9.43;;
73170;SDS011;61381;50.118;19.962;2023-06-10T04:48:18;11.50;;;8.95;;
73170;SDS011;61381;50.118;19.962;2023-06-10T04:53:20;12.27;;;8.27;;
73170;SDS011;61381;50.118;19.962;2023-06-10T04:58:21;11.07;;;8.20;;
73170;SDS011;61381;50.118;19.962;2023-06-10T05:03:22;9.35;;;7.53;;
73170;SDS011;61381;50.118;19.962;2023-06-10T05:08:24;10.90;;;7.72;;
73170;SDS011;61381;50.118;19.962;2023-06-10T05:13:25;11.50;;;8.07;;
73170;SDS011;61381;50.118;19.962;2023-06-10T05:18:26;10.00;;;7.47;;
73170;SDS011;61381;50.118;19.962;2023-06-10T05:23:29;8.48;;;7.10;;
73170;SDS011;61381;50.118;19.962;2023-06-10T05:28:30;13.00;;;6.47;;
73170;SDS011;61381;50.118;19.962;2023-06-10T05:33:31;7.50;;;5.93;;
73170;SDS011;61381;50.118;19.962;2023-06-10T05:38:33;9.07;;;6.65;;
73170;SDS011;61381;50.118;19.962;2023-06-10T05:43:34;8.45;;;5.97;;
73170;SDS011;61381;50.118;19.962;2023-06-10T05:48:35;9.77;;;6.68;;
73170;SDS011;61381;50.118;19.962;2023-06-10T05:53:37;8.07;;;5.93;;
73170;SDS011;61381;50.118;19.962;2023-06-10T05:58:38;8.63;;;6.55;;
73170;SDS011;61381;50.118;19.962;2023-06-10T06:03:39;8.45;;;6.10;;
73170;SDS011;61381;50.118;19.962;2023-06-10T06:08:42;7.78;;;6.10;;
73170;SDS011;61381;50.118;19.962;2023-06-10T06:13:43;9.73;;;6.95;;
73170;SDS011;61381;50.118;19.962;2023-06-10T06:18:44;8.43;;;6.45;;
73170;SDS011;61381;50.118;19.962;2023-06-10T06:23:46;7.72;;;5.97;;
73170;SDS011;61381;50.118;19.962;2023-06-10T06:28:47;8.32;;;6.68;;
73170;SDS011;61381;50.118;19.962;2023-06-10T06:33:48;8.95;;;7.75;;
73170;SDS011;61381;50.118;19.962;2023-06-10T06:38:50;11.25;;;6.43;;
73170;SDS011;61381;50.118;19.962;2023-06-10T06:43:51;9.32;;;7.70;;
73170;SDS011;61381;50.118;19.962;2023-06-10T06:48:54;8.55;;;6.68;;
73170;SDS011;61381;50.118;19.962;2023-06-10T06:53:56;9.70;;;6.93;;
73170;SDS011;61381;50.118;19.962;2023-06-10T06:58:57;7.72;;;6.40;;
73170;SDS011;61381;50.118;19.962;2023-06-10T07:03:58;8.25;;;6.32;;
73170;SDS011;61381;50.118;19.962;2023-06-10T07:09:00;8.77;;;6.30;;
73170;SDS011;61381;50.118;19.962;2023-06-10T07:14:01;8.80;;;6.35;;
73170;SDS011;61381;50.118;19.962;2023-06-10T07:19:02;7.68;;;5.80;;
73170;SDS011;61381;50.118;19.962;2023-06-10T07:24:05;6.82;;;5.53;;
73170;SDS011;61381;50.118;19.962;2023-06-10T07:29:06;8.65;;;5.65;;
73170;SDS011;61381;50.118;19.962;2023-06-10T07:34:07;6.60;;;5.90;;
73170;SDS011;61381;50.118;19.962;2023-06-10T07:39:10;8.10;;;6.38;;
73170;SDS011;61381;50.118;19.962;2023-06-10T07:44:11;6.57;;;5.88;;
73170;SDS011;61381;50.118;19.962;2023-06-10T07:49:12;7.55;;;5.97;;
73170;SDS011;61381;50.118;19.962;2023-06-10T07:54:15;7.43;;;5.97;;
73170;SDS011;61381;50.118;19.962;2023-06-10T07:59:16;9.27;;;5.95;;
73170;SDS011;61381;50.118;19.962;2023-06-10T08:04:17;6.88;;;6.00;;
73170;SDS011;61381;50.118;19.962;2023-06-10T08:09:19;7.20;;;5.68;;
73170;SDS011;61381;50.118;19.962;2023-06-10T08:14:20;7.07;;;5.78;;
73170;SDS011;61381;50.118;19.962;2023-06-10T08:19:22;7.68;;;6.40;;
73170;SDS011;61381;50.118;19.962;2023-06-10T08:24:24;7.07;;;6.38;;
73170;SDS011;61381;50.118;19.962;2023-06-10T08:29:25;7.00;;;5.55;;
73170;SDS011;61381;50.118;19.962;2023-06-10T08:34:26;7.43;;;5.90;;
73170;SDS011;61381;50.118;19.962;2023-06-10T08:39:28;8.50;;;5.97;;
73170;SDS011;61381;50.118;19.962;2023-06-10T08:44:29;6.65;;;5.72;;
73170;SDS011;61381;50.118;19.962;2023-06-10T08:49:31;6.85;;;5.90;;
73170;SDS011;61381;50.118;19.962;2023-06-10T08:54:40;7.25;;;5.57;;
73170;SDS011;61381;50.118;19.962;2023-06-10T08:59:44;6.13;;;4.97;;
73170;SDS011;61381;50.118;19.962;2023-06-10T09:04:45;6.20;;;5.32;;
73170;SDS011;61381;50.118;19.962;2023-06-10T09:09:49;7.75;;;6.00;;
73170;SDS011;61381;50.118;19.962;2023-06-10T09:14:50;5.70;;;4.85;;
73170;SDS011;61381;50.118;19.962;2023-06-10T09:19:51;7.43;;;5.60;;
73170;SDS011;61381;50.118;19.962;2023-06-10T09:25:03;5.75;;;5.10;;
73170;SDS011;61381;50.118;19.962;2023-06-10T09:30:07;6.07;;;5.18;;
73170;SDS011;61381;50.118;19.962;2023-06-10T09:35:09;8.77;;;6.32;;
73170;SDS011;61381;50.118;19.962;2023-06-10T09:40:14;23.13;;;12.95;;
73170;SDS011;61381;50.118;19.962;2023-06-10T09:45:15;10.65;;;6.95;;
73170;SDS011;61381;50.118;19.962;2023-06-10T09:50:16;13.80;;;7.10;;
73170;SDS011;61381;50.118;19.962;2023-06-10T09:55:19;5.68;;;4.70;;
73170;SDS011;61381;50.118;19.962;2023-06-10T10:00:21;14.20;;;6.30;;
73170;SDS011;61381;50.118;19.962;2023-06-10T10:05:23;7.47;;;6.03;;
73170;SDS011;61381;50.118;19.962;2023-06-10T10:10:26;6.63;;;5.03;;
73170;SDS011;61381;50.118;19.962;2023-06-10T10:15:28;6.45;;;5.07;;
73170;SDS011;61381;50.118;19.962;2023-06-10T10:20:33;5.85;;;4.93;;
73170;SDS011;61381;50.118;19.962;2023-06-10T10:25:37;7.40;;;5.00;;
73170;SDS011;61381;50.118;19.962;2023-06-10T10:30:40;5.95;;;5.18;;
73170;SDS011;61381;50.118;19.962;2023-06-10T10:35:42;6.32;;;4.80;;
73170;SDS011;61381;50.118;19.962;2023-06-10T10:40:45;7.57;;;5.40;;
73170;SDS011;61381;50.118;19.962;2023-06-10T10:45:57;7.32;;;5.28;;
73170;SDS011;61381;50.118;19.962;2023-06-10T10:56:02;5.22;;;4.57;;
73170;SDS011;61381;50.118;19.962;2023-06-10T11:01:12;8.02;;;4.45;;
73170;SDS011;61381;50.118;19.962;2023-06-10T11:06:14;6.82;;;4.40;;
73170;SDS011;61381;50.118;19.962;2023-06-10T11:11:21;5.38;;;3.80;;
73170;SDS011;61381;50.118;19.962;2023-06-10T11:16:24;5.47;;;4.25;;
73170;SDS011;61381;50.118;19.962;2023-06-10T11:21:27;7.43;;;5.70;;
73170;SDS011;61381;50.118;19.962;2023-06-10T11:26:33;7.38;;;5.75;;
73170;SDS011;61381;50.118;19.962;2023-06-10T11:31:35;8.18;;;4.50;;
73170;SDS011;61381;50.118;19.962;2023-06-10T11:36:40;5.68;;;4.72;;
73170;SDS011;61381;50.118;19.962;2023-06-10T11:41:43;7.00;;;4.93;;
73170;SDS011;61381;50.118;19.962;2023-06-10T11:46:47;5.10;;;4.60;;
73170;SDS011;61381;50.118;19.962;2023-06-10T11:51:49;5.35;;;4.00;;
73170;SDS011;61381;50.118;19.962;2023-06-10T11:56:56;5.72;;;3.47;;
73170;SDS011;61381;50.118;19.962;2023-06-10T12:01:58;5.72;;;3.97;;
73170;SDS011;61381;50.118;19.962;2023-06-10T12:06:59;4.47;;;3.70;;
73170;SDS011;61381;50.118;19.962;2023-06-10T12:12:02;6.10;;;3.80;;
73170;SDS011;61381;50.118;19.962;2023-06-10T12:17:05;4.18;;;3.42;;
73170;SDS011;61381;50.118;19.962;2023-06-10T12:22:06;5.20;;;3.78;;
73170;SDS011;61381;50.118;19.962;2023-06-10T12:27:10;4.40;;;3.25;;
73170;SDS011;61381;50.118;19.962;2023-06-10T12:32:11;3.53;;;3.08;;
73170;SDS011;61381;50.118;19.962;2023-06-10T12:37:12;4.22;;;3.65;;
73170;SDS011;61381;50.118;19.962;2023-06-10T12:42:15;3.95;;;3.13;;
73170;SDS011;61381;50.118;19.962;2023-06-10T12:47:16;3.85;;;2.78;;
73170;SDS011;61381;50.118;19.962;2023-06-10T12:52:17;3.90;;;3.13;;
73170;SDS011;61381;50.118;19.962;2023-06-10T12:57:19;4.00;;;3.30;;
73170;SDS011;61381;50.118;19.962;2023-06-10T13:02:20;6.20;;;3.40;;
73170;SDS011;61381;50.118;19.962;2023-06-10T13:07:22;4.50;;;3.45;;
73170;SDS011;61381;50.118;19.962;2023-06-10T13:12:24;4.30;;;3.58;;
73170;SDS011;61381;50.118;19.962;2023-06-10T13:17:26;5.03;;;3.70;;
73170;SDS011;61381;50.118;19.962;2023-06-10T13:22:27;5.03;;;4.10;;
73170;SDS011;61381;50.118;19.962;2023-06-10T13:27:29;6.85;;;4.40;;
73170;SDS011;61381;50.118;19.962;2023-06-10T13:32:30;4.05;;;3.42;;
73170;SDS011;61381;50.118;19.962;2023-06-10T13:37:31;5.03;;;3.30;;
73170;SDS011;61381;50.118;19.962;2023-06-10T13:42:33;2.92;;;2.50;;
73170;SDS011;61381;50.118;19.962;2023-06-10T13:47:34;3.53;;;2.92;;
73170;SDS011;61381;50.118;19.962;2023-06-10T13:52:35;3.97;;;3.05;;
73170;SDS011;61381;50.118;19.962;2023-06-10T13:57:38;5.38;;;3.20;;
73170;SDS011;61381;50.118;19.962;2023-06-10T14:02:39;3.85;;;3.20;;
73170;SDS011;61381;50.118;19.962;2023-06-10T14:07:40;4.18;;;2.92;;
73170;SDS011;61381;50.118;19.962;2023-06-10T14:12:42;4.55;;;2.90;;
73170;SDS011;61381;50.118;19.962;2023-06-10T14:17:43;3.30;;;3.00;;
73170;SDS011;61381;50.118;19.962;2023-06-10T14:22:44;2.97;;;2.67;;
73170;SDS011;61381;50.118;19.962;2023-06-10T14:27:47;3.15;;;2.80;;
73170;SDS011;61381;50.118;19.962;2023-06-10T14:32:48;3.63;;;3.03;;
73170;SDS011;61381;50.118;19.962;2023-06-10T14:37:49;3.65;;;2.90;;
73170;SDS011;61381;50.118;19.962;2023-06-10T14:42:51;4.55;;;2.95;;
73170;SDS011;61381;50.118;19.962;2023-06-10T14:47:52;3.47;;;2.78;;
73170;SDS011;61381;50.118;19.962;2023-06-10T14:52:53;3.85;;;2.90;;
73170;SDS011;61381;50.118;19.962;2023-06-10T14:57:55;3.67;;;2.95;;
73170;SDS011;61381;50.118;19.962;2023-06-10T15:02:56;5.22;;;2.55;;
73170;SDS011;61381;50.118;19.962;2023-06-10T15:07:58;2.83;;;2.50;;
73170;SDS011;61381;50.118;19.962;2023-06-10T15:13:00;3.00;;;2.38;;
73170;SDS011;61381;50.118;19.962;2023-06-10T15:18:01;2.08;;;1.80;;
73170;SDS011;61381;50.118;19.962;2023-06-10T15:23:02;2.70;;;2.25;;
73170;SDS011;61381;50.118;19.962;2023-06-10T15:28:05;3.83;;;2.50;;
73170;SDS011;61381;50.118;19.962;2023-06-10T15:33:05;4.95;;;2.50;;
73170;SDS011;61381;50.118;19.962;2023-06-10T15:38:07;2.70;;;2.40;;
73170;SDS011;61381;50.118;19.962;2023-06-10T15:43:09;3.67;;;2.38;;
73170;SDS011;61381;50.118;19.962;2023-06-10T15:48:10;3.20;;;2.47;;
73170;SDS011;61381;50.118;19.962;2023-06-10T15:53:11;4.00;;;2.60;;
73170;SDS011;61381;50.118;19.962;2023-06-10T15:58:13;3.20;;;2.30;;
73170;SDS011;61381;50.118;19.962;2023-06-10T16:03:14;7.65;;;3.10;;
73170;SDS011;61381;50.118;19.962;2023-06-10T16:08:15;2.83;;;2.50;;
73170;SDS011;61381;50.118;19.962;2023-06-10T16:13:17;4.03;;;2.60;;
73170;SDS011;61381;50.118;19.962;2023-06-10T16:18:18;3.55;;;2.60;;
73170;SDS011;61381;50.118;19.962;2023-06-10T16:23:19;4.88;;;2.53;;
73170;SDS011;61381;50.118;19.962;2023-06-10T16:28:22;3.40;;;2.45;;
73170;SDS011;61381;50.118;19.962;2023-06-10T16:33:23;4.03;;;3.00;;
73170;SDS011;61381;50.118;19.962;2023-06-10T16:38:24;3.20;;;2.60;;
73170;SDS011;61381;50.118;19.962;2023-06-10T16:43:27;3.30;;;2.70;;
73170;SDS011;61381;50.118;19.962;2023-06-10T16:48:28;4.78;;;2.58;;
73170;SDS011;61381;50.118;19.962;2023-06-10T16:53:29;3.90;;;2.55;;
73170;SDS011;61381;50.118;19.962;2023-06-10T16:58:31;3.67;;;2.40;;
73170;SDS011;61381;50.118;19.962;2023-06-10T17:03:32;5.00;;;2.63;;
73170;SDS011;61381;50.118;19.962;2023-06-10T17:08:33;4.85;;;3.25;;
73170;SDS011;61381;50.118;19.962;2023-06-10T17:13:36;4.35;;;2.83;;
73170;SDS011;61381;50.118;19.962;2023-06-10T17:18:37;4.38;;;3.20;;
73170;SDS011;61381;50.118;19.962;2023-06-10T17:23:38;4.15;;;3.35;;
73170;SDS011;61381;50.118;19.962;2023-06-10T17:28:40;5.03;;;2.95;;
73170;SDS011;61381;50.118;19.962;2023-06-10T17:33:41;3.17;;;2.88;;
73170;SDS011;61381;50.118;19.962;2023-06-10T17:38:42;3.45;;;3.00;;
73170;SDS011;61381;50.118;19.962;2023-06-10T17:43:44;4.95;;;3.10;;
73170;SDS011;61381;50.118;19.962;2023-06-10T17:48:45;4.20;;;2.80;;
73170;SDS011;61381;50.118;19.962;2023-06-10T17:53:46;4.28;;;3.00;;
73170;SDS011;61381;50.118;19.962;2023-06-10T17:58:49;3.58;;;3.00;;
73170;SDS011;61381;50.118;19.962;2023-06-10T18:03:50;8.30;;;5.28;;
73170;SDS011;61381;50.118;19.962;2023-06-10T18:08:51;7.28;;;4.25;;
73170;SDS011;61381;50.118;19.962;2023-06-10T18:13:53;4.72;;;3.83;;
73170;SDS011;61381;50.118;19.962;2023-06-10T18:18:54;6.57;;;3.63;;
73170;SDS011;61381;50.118;19.962;2023-06-10T18:23:55;4.88;;;3.20;;
73170;SDS011;61381;50.118;19.962;2023-06-10T18:28:58;4.70;;;3.10;;
73170;SDS011;61381;50.118;19.962;2023-06-10T18:33:58;6.72;;;4.28;;
73170;SDS011;61381;50.118;19.962;2023-06-10T18:38:59;4.55;;;3.60;;
73170;SDS011;61381;50.118;19.962;2023-06-10T18:44:02;12.77;;;6.80;;
73170;SDS011;61381;50.118;19.962;2023-06-10T18:49:03;13.23;;;7.38;;
73170;SDS011;61381;50.118;19.962;2023-06-10T18:54:04;8.30;;;5.03;;
73170;SDS011;61381;50.118;19.962;2023-06-10T18:59:07;6.97;;;4.70;;
73170;SDS011;61381;50.118;19.962;2023-06-10T19:04:08;8.05;;;4.63;;
73170;SDS011;61381;50.118;19.962;2023-06-10T19:09:09;7.65;;;5.30;;
73170;SDS011;61381;50.118;19.962;2023-06-10T19:14:12;7.43;;;5.30;;
73170;SDS011;61381;50.118;19.962;2023-06-10T19:19:13;9.15;;;5.78;;
73170;SDS011;61381;50.118;19.962;2023-06-10T19:24:14;8.15;;;5.20;;
73170;SDS011;61381;50.118;19.962;2023-06-10T19:29:17;9.70;;;5.90;;
73170;SDS011;61381;50.118;19.962;2023-06-10T19:34:18;9.25;;;5.40;;
73170;SDS011;61381;50.118;19.962;2023-06-10T19:39:19;9.48;;;5.28;;
73170;SDS011;61381;50.118;19.962;2023-06-10T19:44:21;8.75;;;6.03;;
73170;SDS011;61381;50.118;19.962;2023-06-10T19:49:22;9.32;;;6.18;;
73170;SDS011;61381;50.118;19.962;2023-06-10T19:54:23;9.50;;;6.18;;
73170;SDS011;61381;50.118;19.962;2023-06-10T19:59:26;10.90;;;6.97;;
73170;SDS011;61381;50.118;19.962;2023-06-10T20:04:27;8.48;;;6.47;;
73170;SDS011;61381;50.118;19.962;2023-06-10T20:09:28;10.25;;;6.72;;
73170;SDS011;61381;50.118;19.962;2023-06-10T20:14:30;8.32;;;6.25;;
73170;SDS011;61381;50.118;19.962;2023-06-10T20:19:31;9.50;;;6.38;;
73170;SDS011;61381;50.118;19.962;2023-06-10T20:24:32;8.90;;;6.50;;
73170;SDS011;61381;50.118;19.962;2023-06-10T20:29:35;9.20;;;6.40;;
73170;SDS011;61381;50.118;19.962;2023-06-10T20:34:36;9.32;;;6.47;;
73170;SDS011;61381;50.118;19.962;2023-06-10T20:39:37;10.30;;;7.25;;
73170;SDS011;61381;50.118;19.962;2023-06-10T20:44:40;10.63;;;7.30;;
73170;SDS011;61381;50.118;19.962;2023-06-10T20:49:41;9.95;;;6.78;;
73170;SDS011;61381;50.118;19.962;2023-06-10T20:54:42;13.35;;;8.23;;
73170;SDS011;61381;50.118;19.962;2023-06-10T20:59:44;9.55;;;6.95;;
73170;SDS011;61381;50.118;19.962;2023-06-10T21:04:46;9.43;;;7.05;;
73170;SDS011;61381;50.118;19.962;2023-06-10T21:09:47;9.38;;;6.55;;
73170;SDS011;61381;50.118;19.962;2023-06-10T21:14:49;10.18;;;6.65;;
73170;SDS011;61381;50.118;19.962;2023-06-10T21:19:50;10.20;;;7.85;;
73170;SDS011;61381;50.118;19.962;2023-06-10T21:24:51;13.30;;;7.93;;
73170;SDS011;61381;50.118;19.962;2023-06-10T21:29:53;9.55;;;7.70;;
73170;SDS011;61381;50.118;19.962;2023-06-10T21:34:54;10.55;;;7.68;;
73170;SDS011;61381;50.118;19.962;2023-06-10T21:39:55;8.80;;;6.65;;
73170;SDS011;61381;50.118;19.962;2023-06-10T21:44:58;10.48;;;6.45;;
73170;SDS011;61381;50.118;19.962;2023-06-10T21:49:59;10.15;;;6.13;;
73170;SDS011;61381;50.118;19.962;2023-06-10T21:55:01;9.43;;;6.75;;
73170;SDS011;61381;50.118;19.962;2023-06-10T22:00:04;8.93;;;6.07;;
73170;SDS011;61381;50.118;19.962;2023-06-10T22:05:07;8.05;;;6.10;;
73170;SDS011;61381;50.118;19.962;2023-06-10T22:10:08;8.07;;;6.47;;
73170;SDS011;61381;50.118;19.962;2023-06-10T22:15:11;9.70;;;6.25;;
73170;SDS011;61381;50.118;19.962;2023-06-10T22:20:12;9.55;;;8.02;;
73170;SDS011;61381;50.118;19.962;2023-06-10T22:25:14;9.82;;;7.35;;
73170;SDS011;61381;50.118;19.962;2023-06-10T22:30:16;13.68;;;7.80;;
73170;SDS011;61381;50.118;19.962;2023-06-10T22:35:18;12.25;;;8.73;;
73170;SDS011;61381;50.118;19.962;2023-06-10T22:40:19;11.93;;;8.35;;
73170;SDS011;61381;50.118;19.962;2023-06-10T22:45:21;12.15;;;8.18;;
73170;SDS011;61381;50.118;19.962;2023-06-10T22:50:23;13.25;;;8.40;;
73170;SDS011;61381;50.118;19.962;2023-06-10T22:55:24;12.25;;;8.38;;
73170;SDS011;61381;50.118;19.962;2023-06-10T23:00:27;10.85;;;7.72;;
73170;SDS011;61381;50.118;19.962;2023-06-10T23:05:28;11.23;;;7.75;;
73170;SDS011;61381;50.118;19.962;2023-06-10T23:10:29;10.73;;;7.35;;
73170;SDS011;61381;50.118;19.962;2023-06-10T23:15:31;11.10;;;7.68;;
73170;SDS011;61381;50.118;19.962;2023-06-10T23:20:32;12.93;;;8.02;;
73170;SDS011;61381;50.118;19.962;2023-06-10T23:25:33;11.77;;;7.35;;
73170;SDS011;61381;50.118;19.962;2023-06-10T23:30:36;15.35;;;8.95;;
73170;SDS011;61381;50.118;19.962;2023-06-10T23:35:37;11.32;;;7.38;;
73170;SDS011;61381;50.118;19.962;2023-06-10T23:40:38;12.75;;;7.55;;
73170;SDS011;61381;50.118;19.962;2023-06-10T23:45:40;13.73;;;9.25;;
73170;SDS011;61381;50.118;19.962;2023-06-10T23:50:41;14.05;;;9.02;;
73170;SDS011;61381;50.118;19.962;2023-06-10T23:55:42;13.23;;;7.70;;
